sensor_id;sensor_type;location;lat;lon;timestamp;temperature;humidity
10249;DHT22;5169;50.560;9.714;2022-08-19T00:01:55;19.00;99.90
10249;DHT22;5169;50.560;9.714;2022-08-19T00:04:29;18.90;99.90
10249;DHT22;5169;50.560;9.714;2022-08-19T00:06:55;18.90;99.90
10249;DHT22;5169;50.560;9.714;2022-08-19T00:09:26;18.90;99.90
10249;DHT22;5169;50.560;9.714;2022-08-19T00:11:55;18.90;99.90
10249;DHT22;5169;50.560;9.714;2022-08-19T00:14:27;19.00;99.90
10249;DHT22;5169;50.560;9.714;2022-08-19T00:16:56;18.90;99.90
10249;DHT22;5169;50.560;9.714;2022-08-19T00:19:25;18.90;99.90
10249;DHT22;5169;50.560;9.714;2022-08-19T00:21:54;18.80;99.90
10249;DHT22;5169;50.560;9.714;2022-08-19T00:24:29;18.70;99.90
10249;DHT22;5169;50.560;9.714;2022-08-19T00:27:02;18.60;99.90
10249;DHT22;5169;50.560;9.714;2022-08-19T00:29:30;18.60;99.90
10249;DHT22;5169;50.560;9.714;2022-08-19T00:31:57;18.60;99.90
10249;DHT22;5169;50.560;9.714;2022-08-19T00:34:30;18.50;99.90
10249;DHT22;5169;50.560;9.714;2022-08-19T00:36:56;18.50;99.90
10249;DHT22;5169;50.560;9.714;2022-08-19T00:39:28;18.50;99.90
10249;DHT22;5169;50.560;9.714;2022-08-19T00:41:56;18.50;99.90
10249;DHT22;5169;50.560;9.714;2022-08-19T00:44:31;18.50;99.90
10249;DHT22;5169;50.560;9.714;2022-08-19T00:47:04;18.50;99.90
10249;DHT22;5169;50.560;9.714;2022-08-19T00:49:52;18.40;99.90
10249;DHT22;5169;50.560;9.714;2022-08-19T00:52:40;18.40;99.90
10249;DHT22;5169;50.560;9.714;2022-08-19T00:55:18;18.40;99.90
10249;DHT22;5169;50.560;9.714;2022-08-19T00:57:54;18.40;99.90
10249;DHT22;5169;50.560;9.714;2022-08-19T01:00:31;18.50;99.90
10249;DHT22;5169;50.560;9.714;2022-08-19T01:03:07;18.50;99.90
10249;DHT22;5169;50.560;9.714;2022-08-19T01:05:41;18.60;99.90
10249;DHT22;5169;50.560;9.714;2022-08-19T01:08:10;18.70;99.90
10249;DHT22;5169;50.560;9.714;2022-08-19T01:10:49;18.80;99.90
10249;DHT22;5169;50.560;9.714;2022-08-19T01:13:19;18.80;99.90
10249;DHT22;5169;50.560;9.714;2022-08-19T01:15:58;18.80;99.90
10249;DHT22;5169;50.560;9.714;2022-08-19T01:18:29;18.80;99.90
10249;DHT22;5169;50.560;9.714;2022-08-19T01:21:00;18.90;99.90
10249;DHT22;5169;50.560;9.714;2022-08-19T01:23:28;18.90;99.90
10249;DHT22;5169;50.560;9.714;2022-08-19T01:26:11;19.00;99.90
10249;DHT22;5169;50.560;9.714;2022-08-19T01:28:39;18.90;99.90
10249;DHT22;5169;50.560;9.714;2022-08-19T01:31:08;19.10;99.90
10249;DHT22;5169;50.560;9.714;2022-08-19T01:33:41;19.10;99.90
10249;DHT22;5169;50.560;9.714;2022-08-19T01:36:28;19.20;99.90
10249;DHT22;5169;50.560;9.714;2022-08-19T01:38:55;18.90;99.90
10249;DHT22;5169;50.560;9.714;2022-08-19T01:41:21;19.10;99.90
10249;DHT22;5169;50.560;9.714;2022-08-19T01:43:51;19.00;99.90
10249;DHT22;5169;50.560;9.714;2022-08-19T01:46:20;18.90;99.90
10249;DHT22;5169;50.560;9.714;2022-08-19T01:48:46;18.90;99.90
10249;DHT22;5169;50.560;9.714;2022-08-19T01:51:15;19.00;99.90
10249;DHT22;5169;50.560;9.714;2022-08-19T01:53:47;19.00;99.90
10249;DHT22;5169;50.560;9.714;2022-08-19T01:56:16;18.80;99.90
10249;DHT22;5169;50.560;9.714;2022-08-19T01:58:50;18.70;99.90
10249;DHT22;5169;50.560;9.714;2022-08-19T02:01:21;18.70;99.90
10249;DHT22;5169;50.560;9.714;2022-08-19T02:03:47;18.60;99.90
10249;DHT22;5169;50.560;9.714;2022-08-19T02:06:13;18.60;99.90
10249;DHT22;5169;50.560;9.714;2022-08-19T02:08:45;18.70;99.90
10249;DHT22;5169;50.560;9.714;2022-08-19T02:11:19;18.70;99.90
10249;DHT22;5169;50.560;9.714;2022-08-19T02:13:46;18.80;99.90
10249;DHT22;5169;50.560;9.714;2022-08-19T02:16:11;18.90;99.90
10249;DHT22;5169;50.560;9.714;2022-08-19T02:18:42;18.90;99.90
10249;DHT22;5169;50.560;9.714;2022-08-19T02:21:13;18.80;99.90
10249;DHT22;5169;50.560;9.714;2022-08-19T02:23:46;18.80;99.90
10249;DHT22;5169;50.560;9.714;2022-08-19T02:26:12;18.70;99.90
10249;DHT22;5169;50.560;9.714;2022-08-19T02:28:39;18.60;99.90
10249;DHT22;5169;50.560;9.714;2022-08-19T02:31:19;18.60;99.90
10249;DHT22;5169;50.560;9.714;2022-08-19T02:33:46;18.70;99.90
10249;DHT22;5169;50.560;9.714;2022-08-19T02:36:13;18.80;99.90
10249;DHT22;5169;50.560;9.714;2022-08-19T02:38:44;18.60;99.90
10249;DHT22;5169;50.560;9.714;2022-08-19T02:41:19;18.60;99.90
10249;DHT22;5169;50.560;9.714;2022-08-19T02:43:48;18.60;99.90
10249;DHT22;5169;50.560;9.714;2022-08-19T02:46:25;18.80;99.90
10249;DHT22;5169;50.560;9.714;2022-08-19T02:48:59;18.70;99.90
10249;DHT22;5169;50.560;9.714;2022-08-19T02:51:35;18.80;99.90
10249;DHT22;5169;50.560;9.714;2022-08-19T02:54:09;18.80;99.90
10249;DHT22;5169;50.560;9.714;2022-08-19T02:56:37;18.60;99.90
10249;DHT22;5169;50.560;9.714;2022-08-19T02:59:04;18.70;99.90
10249;DHT22;5169;50.560;9.714;2022-08-19T03:01:34;18.70;99.90
10249;DHT22;5169;50.560;9.714;2022-08-19T03:04:04;18.70;99.90
10249;DHT22;5169;50.560;9.714;2022-08-19T03:06:37;18.70;99.90
10249;DHT22;5169;50.560;9.714;2022-08-19T03:09:03;18.70;99.90
10249;DHT22;5169;50.560;9.714;2022-08-19T03:11:31;18.50;99.90
10249;DHT22;5169;50.560;9.714;2022-08-19T03:14:07;18.40;99.90
10249;DHT22;5169;50.560;9.714;2022-08-19T03:16:48;18.60;99.90
10249;DHT22;5169;50.560;9.714;2022-08-19T03:19:16;18.60;99.90
10249;DHT22;5169;50.560;9.714;2022-08-19T03:21:48;18.50;99.90
10249;DHT22;5169;50.560;9.714;2022-08-19T03:24:15;18.40;99.90
10249;DHT22;5169;50.560;9.714;2022-08-19T03:26:50;18.50;99.90
10249;DHT22;5169;50.560;9.714;2022-08-19T03:29:18;18.40;99.90
10249;DHT22;5169;50.560;9.714;2022-08-19T03:31:46;18.40;99.90
10249;DHT22;5169;50.560;9.714;2022-08-19T03:34:21;18.30;99.90
10249;DHT22;5169;50.560;9.714;2022-08-19T03:36:54;18.30;99.90
10249;DHT22;5169;50.560;9.714;2022-08-19T03:39:25;18.20;99.90
10249;DHT22;5169;50.560;9.714;2022-08-19T03:41:54;18.20;99.90
10249;DHT22;5169;50.560;9.714;2022-08-19T03:44:23;18.10;99.90
10249;DHT22;5169;50.560;9.714;2022-08-19T03:46:53;18.30;99.90
10249;DHT22;5169;50.560;9.714;2022-08-19T03:49:25;18.40;99.90
10249;DHT22;5169;50.560;9.714;2022-08-19T03:51:52;18.50;99.90
10249;DHT22;5169;50.560;9.714;2022-08-19T03:54:20;18.60;99.90
10249;DHT22;5169;50.560;9.714;2022-08-19T03:56:53;18.40;99.90
10249;DHT22;5169;50.560;9.714;2022-08-19T03:59:29;18.50;99.90
10249;DHT22;5169;50.560;9.714;2022-08-19T04:02:02;18.60;99.90
10249;DHT22;5169;50.560;9.714;2022-08-19T04:04:31;18.40;99.90
10249;DHT22;5169;50.560;9.714;2022-08-19T04:06:59;18.40;99.90
10249;DHT22;5169;50.560;9.714;2022-08-19T04:09:25;18.40;99.90
10249;DHT22;5169;50.560;9.714;2022-08-19T04:11:57;18.30;99.90
10249;DHT22;5169;50.560;9.714;2022-08-19T04:14:28;18.30;99.90
10249;DHT22;5169;50.560;9.714;2022-08-19T04:16:55;18.20;99.90
10249;DHT22;5169;50.560;9.714;2022-08-19T04:19:24;18.30;99.90
10249;DHT22;5169;50.560;9.714;2022-08-19T04:21:52;18.50;99.90
10249;DHT22;5169;50.560;9.714;2022-08-19T04:24:19;18.60;99.90
10249;DHT22;5169;50.560;9.714;2022-08-19T04:26:48;18.60;99.90
10249;DHT22;5169;50.560;9.714;2022-08-19T04:29:21;18.60;99.90
10249;DHT22;5169;50.560;9.714;2022-08-19T04:31:56;18.50;99.90
10249;DHT22;5169;50.560;9.714;2022-08-19T04:34:28;18.50;99.90
10249;DHT22;5169;50.560;9.714;2022-08-19T04:36:55;18.60;99.90
10249;DHT22;5169;50.560;9.714;2022-08-19T04:39:24;18.60;99.90
10249;DHT22;5169;50.560;9.714;2022-08-19T04:42:18;18.70;99.90
10249;DHT22;5169;50.560;9.714;2022-08-19T04:45:16;18.70;99.90
10249;DHT22;5169;50.560;9.714;2022-08-19T04:47:44;18.70;99.90
10249;DHT22;5169;50.560;9.714;2022-08-19T04:50:16;18.80;99.90
10249;DHT22;5169;50.560;9.714;2022-08-19T04:52:41;18.80;99.90
10249;DHT22;5169;50.560;9.714;2022-08-19T04:55:12;18.80;99.90
10249;DHT22;5169;50.560;9.714;2022-08-19T04:57:40;18.80;99.90
10249;DHT22;5169;50.560;9.714;2022-08-19T05:00:11;18.80;99.90
10249;DHT22;5169;50.560;9.714;2022-08-19T05:02:45;18.90;99.90
10249;DHT22;5169;50.560;9.714;2022-08-19T05:05:11;18.90;99.90
10249;DHT22;5169;50.560;9.714;2022-08-19T05:07:41;19.00;99.90
10249;DHT22;5169;50.560;9.714;2022-08-19T05:10:11;19.00;99.90
10249;DHT22;5169;50.560;9.714;2022-08-19T05:12:38;19.00;99.90
10249;DHT22;5169;50.560;9.714;2022-08-19T05:15:15;19.20;99.90
10249;DHT22;5169;50.560;9.714;2022-08-19T05:17:49;19.20;99.90
10249;DHT22;5169;50.560;9.714;2022-08-19T05:20:34;19.20;99.90
10249;DHT22;5169;50.560;9.714;2022-08-19T05:23:21;19.10;99.90
10249;DHT22;5169;50.560;9.714;2022-08-19T05:25:52;19.20;99.90
10249;DHT22;5169;50.560;9.714;2022-08-19T05:28:19;19.10;99.90
10249;DHT22;5169;50.560;9.714;2022-08-19T05:30:45;19.10;99.90
10249;DHT22;5169;50.560;9.714;2022-08-19T05:33:11;19.30;99.90
10249;DHT22;5169;50.560;9.714;2022-08-19T05:35:46;19.30;99.90
10249;DHT22;5169;50.560;9.714;2022-08-19T05:38:21;19.40;99.90
10249;DHT22;5169;50.560;9.714;2022-08-19T05:40:47;19.40;99.90
10249;DHT22;5169;50.560;9.714;2022-08-19T05:43:14;19.50;99.90
10249;DHT22;5169;50.560;9.714;2022-08-19T05:45:44;19.50;99.90
10249;DHT22;5169;50.560;9.714;2022-08-19T05:48:11;19.50;99.90
10249;DHT22;5169;50.560;9.714;2022-08-19T05:50:39;19.60;99.90
10249;DHT22;5169;50.560;9.714;2022-08-19T05:53:08;19.60;99.90
10249;DHT22;5169;50.560;9.714;2022-08-19T05:55:35;19.60;99.90
10249;DHT22;5169;50.560;9.714;2022-08-19T05:58:03;19.60;99.90
10249;DHT22;5169;50.560;9.714;2022-08-19T06:00:37;19.50;99.90
10249;DHT22;5169;50.560;9.714;2022-08-19T06:03:03;19.60;99.90
10249;DHT22;5169;50.560;9.714;2022-08-19T06:05:32;19.70;99.90
10249;DHT22;5169;50.560;9.714;2022-08-19T06:08:03;19.80;99.90
10249;DHT22;5169;50.560;9.714;2022-08-19T06:10:33;19.90;99.90
10249;DHT22;5169;50.560;9.714;2022-08-19T06:12:58;19.80;99.90
10249;DHT22;5169;50.560;9.714;2022-08-19T06:15:24;19.70;99.90
10249;DHT22;5169;50.560;9.714;2022-08-19T06:17:59;19.80;99.90
10249;DHT22;5169;50.560;9.714;2022-08-19T06:20:34;19.80;99.90
10249;DHT22;5169;50.560;9.714;2022-08-19T06:23:02;19.90;99.90
10249;DHT22;5169;50.560;9.714;2022-08-19T06:25:28;19.80;99.90
10249;DHT22;5169;50.560;9.714;2022-08-19T06:28:03;19.80;99.90
10249;DHT22;5169;50.560;9.714;2022-08-19T06:30:28;19.70;99.90
10249;DHT22;5169;50.560;9.714;2022-08-19T06:32:57;19.70;99.90
10249;DHT22;5169;50.560;9.714;2022-08-19T06:35:23;19.80;99.90
10249;DHT22;5169;50.560;9.714;2022-08-19T06:37:51;19.90;99.90
10249;DHT22;5169;50.560;9.714;2022-08-19T06:40:26;19.80;99.90
10249;DHT22;5169;50.560;9.714;2022-08-19T06:42:52;19.70;99.90
10249;DHT22;5169;50.560;9.714;2022-08-19T06:45:25;19.80;99.90
10249;DHT22;5169;50.560;9.714;2022-08-19T06:47:52;19.80;99.90
10249;DHT22;5169;50.560;9.714;2022-08-19T06:50:23;19.90;99.90
10249;DHT22;5169;50.560;9.714;2022-08-19T06:52:51;20.00;99.90
10249;DHT22;5169;50.560;9.714;2022-08-19T06:55:17;20.10;99.90
10249;DHT22;5169;50.560;9.714;2022-08-19T06:57:46;20.10;99.90
10249;DHT22;5169;50.560;9.714;2022-08-19T07:00:13;20.00;99.90
10249;DHT22;5169;50.560;9.714;2022-08-19T07:02:46;20.10;99.90
10249;DHT22;5169;50.560;9.714;2022-08-19T07:05:11;20.30;99.90
10249;DHT22;5169;50.560;9.714;2022-08-19T07:07:37;20.30;99.90
10249;DHT22;5169;50.560;9.714;2022-08-19T07:10:04;20.20;99.90
10249;DHT22;5169;50.560;9.714;2022-08-19T07:12:34;20.10;99.90
10249;DHT22;5169;50.560;9.714;2022-08-19T07:15:04;20.00;99.90
10249;DHT22;5169;50.560;9.714;2022-08-19T07:17:38;19.90;99.90
10249;DHT22;5169;50.560;9.714;2022-08-19T07:20:06;20.00;99.90
10249;DHT22;5169;50.560;9.714;2022-08-19T07:22:36;20.20;99.90
10249;DHT22;5169;50.560;9.714;2022-08-19T07:25:03;20.40;99.90
10249;DHT22;5169;50.560;9.714;2022-08-19T07:27:36;20.40;99.90
10249;DHT22;5169;50.560;9.714;2022-08-19T07:30:03;20.70;99.90
10249;DHT22;5169;50.560;9.714;2022-08-19T07:32:29;20.80;99.90
10249;DHT22;5169;50.560;9.714;2022-08-19T07:34:59;20.80;99.90
10249;DHT22;5169;50.560;9.714;2022-08-19T07:37:25;21.10;99.90
10249;DHT22;5169;50.560;9.714;2022-08-19T07:40:06;21.20;99.90
10249;DHT22;5169;50.560;9.714;2022-08-19T07:42:34;21.30;99.90
10249;DHT22;5169;50.560;9.714;2022-08-19T07:45:05;21.40;99.90
10249;DHT22;5169;50.560;9.714;2022-08-19T07:47:33;21.40;99.90
10249;DHT22;5169;50.560;9.714;2022-08-19T07:50:09;21.40;99.90
10249;DHT22;5169;50.560;9.714;2022-08-19T07:52:39;21.30;99.90
10249;DHT22;5169;50.560;9.714;2022-08-19T07:55:07;21.20;99.90
10249;DHT22;5169;50.560;9.714;2022-08-19T07:57:33;21.00;99.90
10249;DHT22;5169;50.560;9.714;2022-08-19T08:00:04;20.90;99.90
10249;DHT22;5169;50.560;9.714;2022-08-19T08:02:31;21.00;99.90
10249;DHT22;5169;50.560;9.714;2022-08-19T08:04:56;20.90;99.90
10249;DHT22;5169;50.560;9.714;2022-08-19T08:07:43;20.90;99.90
10249;DHT22;5169;50.560;9.714;2022-08-19T08:10:27;21.10;99.90
10249;DHT22;5169;50.560;9.714;2022-08-19T08:12:53;21.20;99.90
10249;DHT22;5169;50.560;9.714;2022-08-19T08:15:29;21.30;99.90
10249;DHT22;5169;50.560;9.714;2022-08-19T08:17:55;21.40;99.90
10249;DHT22;5169;50.560;9.714;2022-08-19T08:20:21;21.50;99.90
10249;DHT22;5169;50.560;9.714;2022-08-19T08:22:50;21.60;99.90
10249;DHT22;5169;50.560;9.714;2022-08-19T08:25:41;21.70;99.90
10249;DHT22;5169;50.560;9.714;2022-08-19T08:28:07;21.80;99.90
10249;DHT22;5169;50.560;9.714;2022-08-19T08:30:41;21.90;99.90
10249;DHT22;5169;50.560;9.714;2022-08-19T08:33:08;21.80;99.90
10249;DHT22;5169;50.560;9.714;2022-08-19T08:35:44;21.90;99.90
10249;DHT22;5169;50.560;9.714;2022-08-19T08:38:17;22.00;99.90
10249;DHT22;5169;50.560;9.714;2022-08-19T08:43:55;22.10;99.90
10249;DHT22;5169;50.560;9.714;2022-08-19T08:46:53;22.20;99.90
10249;DHT22;5169;50.560;9.714;2022-08-19T08:49:54;22.20;99.90
10249;DHT22;5169;50.560;9.714;2022-08-19T08:52:30;22.20;99.90
10249;DHT22;5169;50.560;9.714;2022-08-19T08:55:08;22.20;99.90
10249;DHT22;5169;50.560;9.714;2022-08-19T09:00:46;22.60;99.90
10249;DHT22;5169;50.560;9.714;2022-08-19T09:03:21;22.60;99.90
10249;DHT22;5169;50.560;9.714;2022-08-19T09:09:09;22.80;99.90
10249;DHT22;5169;50.560;9.714;2022-08-19T09:12:00;23.10;99.90
10249;DHT22;5169;50.560;9.714;2022-08-19T09:17:29;23.10;99.90
10249;DHT22;5169;50.560;9.714;2022-08-19T09:20:21;23.20;99.90
10249;DHT22;5169;50.560;9.714;2022-08-19T09:22:53;23.10;99.90
10249;DHT22;5169;50.560;9.714;2022-08-19T09:25:22;23.20;99.90
10249;DHT22;5169;50.560;9.714;2022-08-19T09:27:52;23.10;99.90
10249;DHT22;5169;50.560;9.714;2022-08-19T09:30:36;22.90;99.90
10249;DHT22;5169;50.560;9.714;2022-08-19T09:33:05;23.10;99.90
10249;DHT22;5169;50.560;9.714;2022-08-19T09:35:33;22.90;99.90
10249;DHT22;5169;50.560;9.714;2022-08-19T09:38:08;23.00;99.90
10249;DHT22;5169;50.560;9.714;2022-08-19T09:40:34;23.00;99.90
10249;DHT22;5169;50.560;9.714;2022-08-19T09:43:07;23.10;99.90
10249;DHT22;5169;50.560;9.714;2022-08-19T09:45:40;23.20;99.90
10249;DHT22;5169;50.560;9.714;2022-08-19T09:48:06;23.20;99.90
10249;DHT22;5169;50.560;9.714;2022-08-19T09:50:34;23.20;99.90
10249;DHT22;5169;50.560;9.714;2022-08-19T09:53:06;23.20;99.90
10249;DHT22;5169;50.560;9.714;2022-08-19T09:55:32;23.10;99.90
10249;DHT22;5169;50.560;9.714;2022-08-19T09:58:00;23.20;99.90
10249;DHT22;5169;50.560;9.714;2022-08-19T10:00:29;23.20;99.90
10249;DHT22;5169;50.560;9.714;2022-08-19T10:02:57;23.30;99.90
10249;DHT22;5169;50.560;9.714;2022-08-19T10:05:23;23.30;99.90
10249;DHT22;5169;50.560;9.714;2022-08-19T10:08:08;23.30;99.90
10249;DHT22;5169;50.560;9.714;2022-08-19T10:10:35;23.20;99.90
10249;DHT22;5169;50.560;9.714;2022-08-19T10:13:01;23.10;99.90
10249;DHT22;5169;50.560;9.714;2022-08-19T10:15:32;23.10;99.90
10249;DHT22;5169;50.560;9.714;2022-08-19T10:18:00;23.20;99.90
10249;DHT22;5169;50.560;9.714;2022-08-19T10:20:35;23.50;99.90
10249;DHT22;5169;50.560;9.714;2022-08-19T10:23:02;23.80;99.90
10249;DHT22;5169;50.560;9.714;2022-08-19T10:25:32;24.30;99.90
10249;DHT22;5169;50.560;9.714;2022-08-19T10:28:00;24.70;99.90
10249;DHT22;5169;50.560;9.714;2022-08-19T10:30:31;24.90;99.90
10249;DHT22;5169;50.560;9.714;2022-08-19T10:32:57;25.20;99.90
10249;DHT22;5169;50.560;9.714;2022-08-19T10:35:23;25.70;99.90
10249;DHT22;5169;50.560;9.714;2022-08-19T10:37:55;26.30;99.90
10249;DHT22;5169;50.560;9.714;2022-08-19T10:40:26;26.80;98.40
10249;DHT22;5169;50.560;9.714;2022-08-19T10:42:58;27.60;97.90
10249;DHT22;5169;50.560;9.714;2022-08-19T10:45:24;28.40;95.80
10249;DHT22;5169;50.560;9.714;2022-08-19T10:47:55;28.90;94.30
10249;DHT22;5169;50.560;9.714;2022-08-19T10:50:23;28.80;94.00
10249;DHT22;5169;50.560;9.714;2022-08-19T10:53:08;29.20;94.30
10249;DHT22;5169;50.560;9.714;2022-08-19T10:55:36;30.10;92.30
10249;DHT22;5169;50.560;9.714;2022-08-19T10:58:23;30.30;91.60
10249;DHT22;5169;50.560;9.714;2022-08-19T11:00:55;30.50;90.60
10249;DHT22;5169;50.560;9.714;2022-08-19T11:03:22;31.00;90.00
10249;DHT22;5169;50.560;9.714;2022-08-19T11:06:02;31.10;88.80
10249;DHT22;5169;50.560;9.714;2022-08-19T11:08:33;31.70;86.80
10249;DHT22;5169;50.560;9.714;2022-08-19T11:11:01;32.20;86.00
10249;DHT22;5169;50.560;9.714;2022-08-19T11:13:36;33.00;81.80
10249;DHT22;5169;50.560;9.714;2022-08-19T11:16:15;31.80;82.70
10249;DHT22;5169;50.560;9.714;2022-08-19T11:18:57;30.70;86.30
10249;DHT22;5169;50.560;9.714;2022-08-19T11:21:34;30.10;87.40
10249;DHT22;5169;50.560;9.714;2022-08-19T11:24:04;29.70;89.50
10249;DHT22;5169;50.560;9.714;2022-08-19T11:26:36;29.00;90.40
10249;DHT22;5169;50.560;9.714;2022-08-19T11:29:10;29.90;90.80
10249;DHT22;5169;50.560;9.714;2022-08-19T11:31:40;31.10;87.70
10249;DHT22;5169;50.560;9.714;2022-08-19T11:34:12;31.90;83.70
10249;DHT22;5169;50.560;9.714;2022-08-19T11:36:44;31.80;81.80
10249;DHT22;5169;50.560;9.714;2022-08-19T11:39:21;31.00;84.00
10249;DHT22;5169;50.560;9.714;2022-08-19T11:41:53;29.90;83.30
10249;DHT22;5169;50.560;9.714;2022-08-19T11:44:19;28.90;85.60
10249;DHT22;5169;50.560;9.714;2022-08-19T11:46:53;28.00;86.50
10249;DHT22;5169;50.560;9.714;2022-08-19T11:49:20;27.60;88.10
10249;DHT22;5169;50.560;9.714;2022-08-19T11:51:51;27.50;90.30
10249;DHT22;5169;50.560;9.714;2022-08-19T11:54:17;27.50;91.30
10249;DHT22;5169;50.560;9.714;2022-08-19T11:56:43;27.50;92.10
10249;DHT22;5169;50.560;9.714;2022-08-19T11:59:09;27.50;91.50
10249;DHT22;5169;50.560;9.714;2022-08-19T12:01:42;27.40;91.80
10249;DHT22;5169;50.560;9.714;2022-08-19T12:04:17;27.40;92.20
10249;DHT22;5169;50.560;9.714;2022-08-19T12:06:42;27.50;91.40
10249;DHT22;5169;50.560;9.714;2022-08-19T12:09:10;27.90;91.70
10249;DHT22;5169;50.560;9.714;2022-08-19T12:11:42;28.20;91.20
10249;DHT22;5169;50.560;9.714;2022-08-19T12:14:10;28.90;90.90
10249;DHT22;5169;50.560;9.714;2022-08-19T12:16:40;29.20;90.00
10249;DHT22;5169;50.560;9.714;2022-08-19T12:19:08;28.90;88.30
10249;DHT22;5169;50.560;9.714;2022-08-19T12:21:35;28.50;90.10
10249;DHT22;5169;50.560;9.714;2022-08-19T12:24:09;27.90;89.80
10249;DHT22;5169;50.560;9.714;2022-08-19T12:26:35;27.40;90.10
10249;DHT22;5169;50.560;9.714;2022-08-19T12:29:07;27.10;90.30
10249;DHT22;5169;50.560;9.714;2022-08-19T12:31:33;26.80;91.00
10249;DHT22;5169;50.560;9.714;2022-08-19T12:33:59;26.60;90.70
10249;DHT22;5169;50.560;9.714;2022-08-19T12:36:28;26.40;91.90
10249;DHT22;5169;50.560;9.714;2022-08-19T12:38:54;26.50;92.10
10249;DHT22;5169;50.560;9.714;2022-08-19T12:41:22;26.70;91.10
10249;DHT22;5169;50.560;9.714;2022-08-19T12:43:52;26.80;91.20
10249;DHT22;5169;50.560;9.714;2022-08-19T12:46:19;26.90;90.90
10249;DHT22;5169;50.560;9.714;2022-08-19T12:48:47;27.00;91.20
10249;DHT22;5169;50.560;9.714;2022-08-19T12:51:18;27.20;89.90
10249;DHT22;5169;50.560;9.714;2022-08-19T12:53:47;27.50;90.00
10249;DHT22;5169;50.560;9.714;2022-08-19T12:56:17;28.10;88.20
10249;DHT22;5169;50.560;9.714;2022-08-19T12:58:46;28.40;87.10
10249;DHT22;5169;50.560;9.714;2022-08-19T13:01:17;28.70;85.50
10249;DHT22;5169;50.560;9.714;2022-08-19T13:03:46;29.00;86.20
10249;DHT22;5169;50.560;9.714;2022-08-19T13:06:43;29.00;85.30
10249;DHT22;5169;50.560;9.714;2022-08-19T13:09:11;29.00;85.20
10249;DHT22;5169;50.560;9.714;2022-08-19T13:11:40;29.10;82.00
10249;DHT22;5169;50.560;9.714;2022-08-19T13:14:08;28.80;82.30
10249;DHT22;5169;50.560;9.714;2022-08-19T13:16:41;28.70;85.50
10249;DHT22;5169;50.560;9.714;2022-08-19T13:19:08;28.60;85.20
10249;DHT22;5169;50.560;9.714;2022-08-19T13:21:33;28.20;87.20
10249;DHT22;5169;50.560;9.714;2022-08-19T13:24:08;27.90;85.90
10249;DHT22;5169;50.560;9.714;2022-08-19T13:26:34;27.60;86.70
10249;DHT22;5169;50.560;9.714;2022-08-19T13:29:07;27.20;87.60
10249;DHT22;5169;50.560;9.714;2022-08-19T13:31:54;26.90;89.20
10249;DHT22;5169;50.560;9.714;2022-08-19T13:34:40;26.70;90.60
10249;DHT22;5169;50.560;9.714;2022-08-19T13:37:08;26.60;89.50
10249;DHT22;5169;50.560;9.714;2022-08-19T13:39:35;26.60;90.20
10249;DHT22;5169;50.560;9.714;2022-08-19T13:42:06;26.90;90.60
10249;DHT22;5169;50.560;9.714;2022-08-19T13:44:33;27.20;89.70
10249;DHT22;5169;50.560;9.714;2022-08-19T13:47:07;27.50;87.20
10249;DHT22;5169;50.560;9.714;2022-08-19T13:49:42;27.70;87.10
10249;DHT22;5169;50.560;9.714;2022-08-19T13:52:08;28.00;86.70
10249;DHT22;5169;50.560;9.714;2022-08-19T13:54:42;27.90;84.90
10249;DHT22;5169;50.560;9.714;2022-08-19T13:57:08;27.90;86.80
10249;DHT22;5169;50.560;9.714;2022-08-19T13:59:42;27.90;87.20
10249;DHT22;5169;50.560;9.714;2022-08-19T14:02:10;27.80;85.20
10249;DHT22;5169;50.560;9.714;2022-08-19T14:04:44;27.70;85.90
10249;DHT22;5169;50.560;9.714;2022-08-19T14:07:09;27.70;86.30
10249;DHT22;5169;50.560;9.714;2022-08-19T14:09:35;27.90;85.90
10249;DHT22;5169;50.560;9.714;2022-08-19T14:12:04;28.00;84.80
10249;DHT22;5169;50.560;9.714;2022-08-19T14:14:30;28.10;84.00
10249;DHT22;5169;50.560;9.714;2022-08-19T14:16:55;28.20;84.20
10249;DHT22;5169;50.560;9.714;2022-08-19T14:19:21;28.30;86.10
10249;DHT22;5169;50.560;9.714;2022-08-19T14:21:47;28.40;83.20
10249;DHT22;5169;50.560;9.714;2022-08-19T14:24:18;28.40;82.40
10249;DHT22;5169;50.560;9.714;2022-08-19T14:26:46;28.10;84.80
10249;DHT22;5169;50.560;9.714;2022-08-19T14:29:19;27.90;84.70
10249;DHT22;5169;50.560;9.714;2022-08-19T14:31:55;27.80;85.70
10249;DHT22;5169;50.560;9.714;2022-08-19T14:34:30;27.70;85.40
10249;DHT22;5169;50.560;9.714;2022-08-19T14:36:59;27.60;86.60
10249;DHT22;5169;50.560;9.714;2022-08-19T14:39:28;27.60;87.50
10249;DHT22;5169;50.560;9.714;2022-08-19T14:41:58;27.60;86.40
10249;DHT22;5169;50.560;9.714;2022-08-19T14:44:32;27.50;85.40
10249;DHT22;5169;50.560;9.714;2022-08-19T14:46:59;27.30;85.90
10249;DHT22;5169;50.560;9.714;2022-08-19T14:49:28;27.10;87.80
10249;DHT22;5169;50.560;9.714;2022-08-19T14:51:59;26.90;88.30
10249;DHT22;5169;50.560;9.714;2022-08-19T14:54:25;26.90;87.90
10249;DHT22;5169;50.560;9.714;2022-08-19T14:56:58;26.90;87.90
10249;DHT22;5169;50.560;9.714;2022-08-19T14:59:24;27.00;89.20
10249;DHT22;5169;50.560;9.714;2022-08-19T15:01:58;27.20;87.10
10249;DHT22;5169;50.560;9.714;2022-08-19T15:04:26;27.20;87.60
10249;DHT22;5169;50.560;9.714;2022-08-19T15:06:51;27.10;87.70
10249;DHT22;5169;50.560;9.714;2022-08-19T15:09:24;27.10;86.60
10249;DHT22;5169;50.560;9.714;2022-08-19T15:11:50;27.10;87.10
10249;DHT22;5169;50.560;9.714;2022-08-19T15:14:25;27.10;87.50
10249;DHT22;5169;50.560;9.714;2022-08-19T15:16:51;27.10;88.60
10249;DHT22;5169;50.560;9.714;2022-08-19T15:19:27;27.00;87.80
10249;DHT22;5169;50.560;9.714;2022-08-19T15:21:57;27.00;89.20
10249;DHT22;5169;50.560;9.714;2022-08-19T15:24:23;27.00;87.80
10249;DHT22;5169;50.560;9.714;2022-08-19T15:26:58;27.00;87.50
10249;DHT22;5169;50.560;9.714;2022-08-19T15:29:24;27.00;87.80
10249;DHT22;5169;50.560;9.714;2022-08-19T15:31:51;27.00;87.20
10249;DHT22;5169;50.560;9.714;2022-08-19T15:34:22;26.90;87.10
10249;DHT22;5169;50.560;9.714;2022-08-19T15:36:48;27.00;88.80
10249;DHT22;5169;50.560;9.714;2022-08-19T15:39:13;27.20;88.30
10249;DHT22;5169;50.560;9.714;2022-08-19T15:41:45;27.20;87.30
10249;DHT22;5169;50.560;9.714;2022-08-19T15:44:20;27.20;87.40
10249;DHT22;5169;50.560;9.714;2022-08-19T15:46:47;27.20;86.90
10249;DHT22;5169;50.560;9.714;2022-08-19T15:49:25;27.20;85.90
10249;DHT22;5169;50.560;9.714;2022-08-19T15:51:52;27.00;88.40
10249;DHT22;5169;50.560;9.714;2022-08-19T15:54:21;27.00;87.70
10249;DHT22;5169;50.560;9.714;2022-08-19T15:56:48;27.00;87.70
10249;DHT22;5169;50.560;9.714;2022-08-19T15:59:38;26.80;88.50
10249;DHT22;5169;50.560;9.714;2022-08-19T16:02:25;26.50;88.30
10249;DHT22;5169;50.560;9.714;2022-08-19T16:05:14;26.20;89.00
10249;DHT22;5169;50.560;9.714;2022-08-19T16:08:01;25.90;90.10
10249;DHT22;5169;50.560;9.714;2022-08-19T16:10:27;25.80;90.40
10249;DHT22;5169;50.560;9.714;2022-08-19T16:12:53;25.80;90.90
10249;DHT22;5169;50.560;9.714;2022-08-19T16:15:29;25.70;90.80
10249;DHT22;5169;50.560;9.714;2022-08-19T16:17:59;25.60;91.10
10249;DHT22;5169;50.560;9.714;2022-08-19T16:20:28;25.50;90.70
10249;DHT22;5169;50.560;9.714;2022-08-19T16:22:58;25.50;90.70